Time;durP1;ratioP1;P1;durP2;ratioP2;P2;SDS_P1;SDS_P2;PMS_P1;PMS_P2;Temp;Humidity;BMP_temperature;BMP_pressure;BME280_temperature;BME280_humidity;BME280_pressure;Samples;Min_cycle;Max_cycle;Signal;HPM_P1;HPM_P2
2022/04/02 00:01:28;;;;;;;0.80;0.80;;;3.90;71.60;;;2.87;58.47;93436.31;5054985;28;20259;-85
2022/04/02 00:03:55;;;;;;;0.70;0.70;;;3.90;71.60;;;2.85;58.32;93438.28;5063116;28;20213;-84
2022/04/02 00:06:22;;;;;;;0.60;0.60;;;4.00;71.70;;;2.79;58.86;93428.66;5017815;28;20212;-84
2022/04/02 00:08:49;;;;;;;0.70;0.70;;;3.90;71.60;;;2.79;58.68;93427.84;5041351;28;20298;-84
2022/04/02 00:11:17;;;;;;;0.80;0.80;;;3.90;71.70;;;2.79;58.70;93435.63;5071023;28;20192;-83
2022/04/02 00:13:44;;;;;;;0.70;0.70;;;3.90;71.80;;;2.69;58.75;93415.97;5070691;28;20243;-84
2022/04/02 00:16:11;;;;;;;0.70;0.70;;;3.90;72.10;;;2.74;58.85;93436.16;5053906;28;20820;-85
2022/04/02 00:18:39;;;;;;;0.80;0.80;;;3.90;72.10;;;2.68;58.81;93418.75;5060446;28;20216;-85
2022/04/02 00:21:06;;;;;;;0.70;0.70;;;3.80;72.10;;;2.71;59.01;93418.38;5049663;28;20267;-84
2022/04/02 00:23:39;;;;;;;0.70;0.70;;;3.80;72.10;;;2.70;58.93;93425.34;5048520;28;20296;-84
2022/04/02 00:26:20;;;;;;;0.80;0.80;;;3.80;72.20;;;2.69;58.99;93426.34;5054597;28;20638;-85
2022/04/02 00:28:50;;;;;;;0.80;0.80;;;3.80;72.30;;;2.66;58.78;93424.13;5046430;28;20310;-84
2022/04/02 00:31:18;;;;;;;0.70;0.70;;;3.80;72.20;;;2.65;59.27;93426.88;5070316;28;20283;-84
2022/04/02 00:33:48;;;;;;;0.63;0.63;;;3.80;72.20;;;2.62;59.06;93432.41;5070121;28;20307;-85
2022/04/02 00:36:18;;;;;;;0.70;0.70;;;3.70;72.20;;;2.56;59.16;93421.81;5053814;28;20283;-84
2022/04/02 00:38:46;;;;;;;0.70;0.70;;;3.70;72.20;;;2.55;59.37;93420.19;5046410;28;20216;-84
2022/04/02 00:41:14;;;;;;;0.80;0.80;;;3.70;72.30;;;2.49;59.11;93418.31;5057110;28;20294;-85
2022/04/02 00:44:11;;;;;;;0.80;0.80;;;3.70;72.30;;;2.50;59.37;93425.13;5057359;28;20215;-84
2022/04/02 00:46:41;;;;;;;0.80;0.80;;;3.60;72.50;;;2.48;59.76;93427.06;5053887;28;20207;-84
2022/04/02 00:49:11;;;;;;;0.70;0.70;;;3.60;72.50;;;2.46;59.22;93425.66;5053428;28;20224;-85
2022/04/02 00:51:43;;;;;;;0.70;0.70;;;3.60;72.50;;;2.44;59.52;93425.00;5049422;28;20224;-85
2022/04/02 00:54:18;;;;;;;0.70;0.70;;;3.60;72.60;;;2.44;59.36;93425.84;5041941;28;20303;-84
2022/04/02 00:56:47;;;;;;;0.80;0.80;;;3.50;72.50;;;2.37;59.48;93415.38;5049741;28;20230;-85
2022/04/02 00:59:15;;;;;;;0.75;0.75;;;3.50;72.50;;;2.43;59.44;93419.03;5049715;28;20216;-85
2022/04/02 01:01:45;;;;;;;0.70;0.70;;;3.50;72.50;;;2.43;59.44;93420.81;5049402;28;20270;-85
2022/04/02 01:04:13;;;;;;;0.70;0.70;;;3.50;72.60;;;2.44;59.50;93425.84;5077905;28;20548;-85
2022/04/02 01:06:43;;;;;;;0.70;0.70;;;3.50;72.50;;;2.45;59.39;93426.63;5041917;28;20193;-85
2022/04/02 01:09:15;;;;;;;0.70;0.70;;;3.50;72.50;;;2.43;59.43;93423.41;5017781;28;20303;-85
2022/04/02 01:11:48;;;;;;;0.80;0.80;;;3.50;72.50;;;2.46;59.52;93433.41;5033251;28;20250;-84
2022/04/02 01:14:16;;;;;;;0.70;0.70;;;3.50;72.50;;;2.45;59.17;93421.44;5068181;28;20215;-84
2022/04/02 01:16:46;;;;;;;0.80;0.80;;;3.50;72.60;;;2.44;59.21;93430.19;5070155;28;20199;-85
2022/04/02 01:19:23;;;;;;;0.80;0.80;;;3.50;72.50;;;2.43;59.25;93433.75;5061405;28;20236;-85
2022/04/02 01:22:01;;;;;;;0.70;0.70;;;3.50;72.60;;;2.36;59.45;93429.28;5034340;28;20701;-85
2022/04/02 01:24:41;;;;;;;0.80;0.80;;;3.50;72.50;;;2.44;59.18;93440.53;5070043;28;20784;-84
2022/04/02 01:27:08;;;;;;;0.80;0.80;;;3.50;72.60;;;2.45;59.30;93436.97;5071003;28;20295;-84
2022/04/02 01:29:37;;;;;;;0.82;0.82;;;3.50;72.60;;;2.46;59.29;93436.78;5072399;28;20219;-84
2022/04/02 01:32:08;;;;;;;0.80;0.80;;;3.50;72.50;;;2.43;59.30;93431.16;5057344;28;20203;-85
2022/04/02 01:34:37;;;;;;;0.70;0.70;;;3.50;72.50;;;2.49;59.27;93443.38;5021554;28;20298;-83
2022/04/02 01:37:15;;;;;;;0.80;0.80;;;3.50;72.50;;;2.46;59.57;93434.19;5017263;28;20220;-84
2022/04/02 01:39:47;;;;;;;0.70;0.70;;;3.50;72.50;;;2.50;59.41;93439.81;5048773;28;20300;-85
2022/04/02 01:42:20;;;;;;;0.70;0.70;;;3.50;72.50;;;2.49;59.48;93433.03;5045100;28;20231;-85
2022/04/02 01:44:56;;;;;;;0.70;0.70;;;3.50;72.50;;;2.51;59.22;93439.63;5051409;28;20270;-85
2022/04/02 01:47:36;;;;;;;0.70;0.70;;;3.50;72.50;;;2.52;59.68;93435.28;5066310;28;20304;-84
2022/04/02 01:50:06;;;;;;;0.70;0.70;;;3.60;72.60;;;2.46;59.36;93434.19;5052266;28;20227;-84
2022/04/02 01:52:39;;;;;;;0.70;0.70;;;3.60;72.70;;;2.50;59.29;93437.22;5060447;28;20208;-84
2022/04/02 01:55:11;;;;;;;0.80;0.80;;;3.60;72.60;;;2.46;59.50;93433.41;5049576;28;20216;-84
2022/04/02 01:57:43;;;;;;;0.70;0.70;;;3.60;72.70;;;2.46;59.44;93439.38;5064741;28;20215;-84
2022/04/02 02:00:15;;;;;;;0.70;0.70;;;3.50;72.60;;;2.45;59.57;93426.63;5036325;28;20217;-85
2022/04/02 02:02:45;;;;;;;0.90;0.90;;;3.50;72.60;;;2.44;59.62;93428.41;5062726;28;20277;-84
2022/04/02 02:05:13;;;;;;;0.70;0.70;;;3.50;72.60;;;2.43;59.47;93420.81;5022602;28;20246;-85
2022/04/02 02:07:51;;;;;;;0.60;0.60;;;3.50;72.70;;;2.40;59.24;93422.78;5055791;28;20610;-85
2022/04/02 02:10:37;;;;;;;0.90;0.90;;;3.50;72.80;;;2.39;59.49;93428.13;5055987;28;20238;-85
2022/04/02 02:13:20;;;;;;;0.70;0.70;;;3.50;72.70;;;2.36;59.49;93423.31;5052009;28;20204;-84
2022/04/02 02:15:49;;;;;;;0.80;0.80;;;3.50;72.70;;;2.36;59.46;93434.47;5065793;28;20207;-85
2022/04/02 02:18:16;;;;;;;0.70;0.70;;;3.50;72.70;;;2.40;59.31;93446.09;5068485;28;20299;-84
2022/04/02 02:20:44;;;;;;;0.80;0.80;;;3.50;72.70;;;2.39;59.45;93441.88;5051486;28;20700;-84
2022/04/02 02:23:11;;;;;;;0.70;0.70;;;3.50;72.80;;;2.38;59.48;93442.03;5051788;28;20331;-84
2022/04/02 02:25:39;;;;;;;0.80;0.80;;;3.50;72.80;;;2.39;59.54;93446.25;5051896;28;20232;-84
2022/04/02 02:28:06;;;;;;;0.80;0.80;;;3.50;72.80;;;2.38;59.32;93442.88;5059282;28;20241;-85
2022/04/02 02:30:33;;;;;;;0.70;0.70;;;3.50;72.80;;;2.40;59.90;93443.50;5044045;28;20224;-84
2022/04/02 02:35:52;;;;;;;0.80;0.80;;;3.50;72.80;;;2.39;59.55;93439.28;5051507;28;20204;-84
2022/04/02 02:38:31;;;;;;;0.70;0.70;;;3.50;72.80;;;2.42;59.81;93438.13;5053436;28;20199;-84
2022/04/02 02:41:10;;;;;;;0.73;0.73;;;3.50;72.80;;;2.37;59.31;93430.09;5071253;28;20761;-84
2022/04/02 02:43:40;;;;;;;0.90;0.90;;;3.50;72.80;;;2.45;59.60;93435.19;5071540;28;20280;-85
2022/04/02 02:46:17;;;;;;;0.80;0.80;;;3.50;72.80;;;2.46;59.62;93438.59;5058005;28;20202;-85
2022/04/02 02:48:48;;;;;;;0.70;0.70;;;3.50;73.60;;;2.46;59.48;93433.41;5049536;28;20712;-85
2022/04/02 02:51:19;;;;;;;0.70;0.70;;;3.50;72.80;;;2.48;59.48;93436.59;5055820;28;20232;-85
2022/04/02 02:53:47;;;;;;;0.80;0.80;;;3.50;72.70;;;2.44;59.41;93430.19;5051800;28;20629;-85
2022/04/02 02:56:14;;;;;;;0.70;0.70;;;3.60;72.80;;;2.46;59.46;93426.44;5035371;28;20197;-83
2022/04/02 02:58:41;;;;;;;0.80;0.80;;;3.50;72.70;;;2.54;59.66;93435.91;5035888;28;20221;-84
2022/04/02 03:01:09;;;;;;;0.70;0.70;;;3.50;72.70;;;2.54;59.53;93436.69;5055766;28;20209;-84
2022/04/02 03:03:38;;;;;;;0.75;0.75;;;3.60;72.60;;;2.55;59.26;93432.31;5058479;28;20231;-85
2022/04/02 03:06:08;;;;;;;0.70;0.70;;;3.60;72.60;;;2.55;59.27;93437.50;5057215;28;20180;-85
2022/04/02 03:08:41;;;;;;;0.70;0.70;;;3.60;72.60;;;2.56;59.23;93439.09;5038948;28;20230;-84
2022/04/02 03:11:08;;;;;;;0.70;0.70;;;3.60;72.60;;;2.54;59.08;93438.50;5035348;28;20224;-85
2022/04/02 03:13:38;;;;;;;0.70;0.70;;;3.60;72.60;;;2.43;59.24;93420.81;5019024;28;20375;-84
2022/04/02 03:16:08;;;;;;;0.60;0.60;;;3.60;72.60;;;2.53;59.20;93436.88;5052770;28;20200;-84
2022/04/02 03:18:55;;;;;;;0.90;0.90;;;3.60;72.60;;;2.53;59.35;93440.28;5064768;28;20317;-85
2022/04/02 03:21:24;;;;;;;0.70;0.70;;;3.60;72.50;;;2.48;59.32;93429.66;5067012;28;20269;-85
2022/04/02 03:23:52;;;;;;;0.80;0.80;;;3.60;72.50;;;2.53;59.47;93440.28;5055376;28;20314;-84
2022/04/02 03:26:21;;;;;;;0.70;0.70;;;3.60;72.50;;;2.59;59.04;93441.34;5069927;28;20278;-85
2022/04/02 03:28:51;;;;;;;0.80;0.80;;;3.60;72.50;;;2.58;59.20;93436.34;5038094;28;20216;-84
2022/04/02 03:31:22;;;;;;;0.70;0.70;;;3.60;72.50;;;2.56;59.35;93439.09;5041324;28;20191;-84
2022/04/02 03:33:52;;;;;;;0.80;0.80;;;3.60;72.50;;;2.50;59.14;93430.28;5042812;28;20222;-84
2022/04/02 03:36:20;;;;;;;0.70;0.70;;;3.60;72.40;;;2.56;59.17;93437.34;5070613;28;20200;-84
2022/04/02 03:38:47;;;;;;;0.70;0.70;;;3.60;72.40;;;2.59;59.37;93446.53;5024268;28;20242;-84
2022/04/02 03:41:16;;;;;;;0.70;0.70;;;3.60;72.40;;;2.58;58.98;93444.13;5074685;28;20214;-84
2022/04/02 03:43:50;;;;;;;0.80;0.80;;;3.60;72.30;;;2.59;59.09;93443.13;5058868;28;20329;-85
2022/04/02 03:49:07;;;;;;;0.90;0.90;;;3.60;72.30;;;2.51;59.05;93442.22;5054760;28;20277;-84
2022/04/02 03:51:35;;;;;;;0.68;0.68;;;3.60;72.30;;;2.55;59.10;93446.06;5057893;28;20195;-84
2022/04/02 03:54:08;;;;;;;0.80;0.80;;;3.60;72.30;;;2.54;59.26;93449.66;5043100;28;20215;-84
2022/04/02 03:56:40;;;;;;;0.80;0.80;;;3.60;72.20;;;2.59;58.98;93469.81;5042812;28;20742;-84
2022/04/02 03:59:12;;;;;;;0.73;0.73;;;3.60;72.20;;;2.59;59.09;93462.06;5035966;28;20235;-85
2022/04/02 04:01:43;;;;;;;0.70;0.70;;;3.60;72.30;;;2.59;58.99;93458.66;5051253;28;20227;-84
2022/04/02 04:04:11;;;;;;;0.70;0.70;;;3.60;72.20;;;2.58;58.96;93460.44;5054321;28;20285;-84
2022/04/02 04:06:39;;;;;;;0.68;0.68;;;3.60;72.20;;;2.54;59.05;93462.59;5065731;28;20480;-84
2022/04/02 04:09:08;;;;;;;0.70;0.70;;;3.60;72.20;;;2.58;59.05;93468.22;5071596;28;20678;-84
2022/04/02 04:11:36;;;;;;;0.70;0.70;;;3.60;72.10;;;2.59;58.93;93474.19;5066775;28;20219;-84
2022/04/02 04:14:03;;;;;;;0.70;0.70;;;3.60;72.10;;;2.59;58.93;93471.59;5034166;28;20221;-84
2022/04/02 04:16:31;;;;;;;0.70;0.70;;;3.60;72.10;;;2.55;58.82;93460.78;5053486;28;20210;-83
2022/04/02 04:18:59;;;;;;;0.70;0.70;;;3.70;72.20;;;2.60;58.74;93476.59;5033949;28;20244;-83
2022/04/02 04:21:27;;;;;;;0.80;0.80;;;3.60;72.10;;;2.61;58.76;93485.16;5060093;28;20674;-84
2022/04/02 04:23:55;;;;;;;0.70;0.70;;;3.70;72.20;;;2.60;58.90;93476.59;5027020;28;20227;-84
2022/04/02 04:26:23;;;;;;;0.60;0.60;;;3.60;72.80;;;2.62;58.87;93481.59;5037173;28;20211;-84
2022/04/02 04:28:51;;;;;;;0.85;0.85;;;3.60;72.20;;;2.62;58.91;93484.19;5053779;28;20450;-83
2022/04/02 04:31:20;;;;;;;0.70;0.70;;;3.60;72.10;;;2.58;58.73;93475.97;5053491;28;20250;-83
2022/04/02 04:33:48;;;;;;;0.70;0.70;;;3.70;72.10;;;2.63;58.70;93478.81;5037179;28;20621;-84
2022/04/02 04:36:18;;;;;;;0.70;0.70;;;3.70;72.10;;;2.53;58.72;93466.16;5037134;28;20227;-84
2022/04/02 04:38:47;;;;;;;0.70;0.70;;;3.70;72.00;;;2.52;58.89;93463.75;5037276;28;20216;-84
2022/04/02 04:41:18;;;;;;;0.70;0.70;;;3.70;72.00;;;2.62;58.82;93476.41;5049161;28;20295;-85
2022/04/02 04:43:49;;;;;;;0.70;0.70;;;3.70;72.00;;;2.61;58.91;93477.41;5069885;28;20309;-84
2022/04/02 04:46:20;;;;;;;0.80;0.80;;;3.70;72.00;;;2.54;58.79;93474.72;5053298;28;20210;-83
2022/04/02 04:48:51;;;;;;;0.80;0.80;;;3.60;71.80;;;2.59;58.64;93479.34;5037261;28;20227;-84
2022/04/02 04:51:23;;;;;;;0.70;0.70;;;3.70;71.90;;;2.57;58.46;93476.94;5053300;28;20196;-84
2022/04/02 04:53:53;;;;;;;0.60;0.60;;;3.60;71.80;;;2.54;58.75;93478.13;5052501;28;20618;-84
2022/04/02 04:56:20;;;;;;;0.70;0.70;;;3.60;71.90;;;2.55;58.71;93482.31;5068829;28;20196;-84
2022/04/02 04:58:49;;;;;;;0.80;0.80;;;3.60;71.90;;;2.53;58.86;93480.88;5051192;28;20224;-83
2022/04/02 05:01:20;;;;;;;0.80;0.80;;;3.60;71.90;;;2.49;58.45;93477.03;5068202;28;20196;-84
2022/04/02 05:03:48;;;;;;;0.70;0.70;;;3.60;71.90;;;2.50;58.68;93476.88;5069338;28;20227;-83
2022/04/02 05:06:19;;;;;;;0.70;0.70;;;3.60;72.00;;;2.53;58.82;93480.88;5057439;28;20208;-84
2022/04/02 05:08:52;;;;;;;0.80;0.80;;;3.60;72.00;;;2.51;58.69;93480.25;5033717;28;20232;-83
2022/04/02 05:11:22;;;;;;;0.80;0.80;;;3.60;71.90;;;2.51;58.72;93486.22;5067827;28;20246;-83
2022/04/02 05:13:53;;;;;;;0.80;0.80;;;3.60;71.90;;;2.51;58.69;93491.41;5046533;28;20220;-83
2022/04/02 05:16:23;;;;;;;0.70;0.70;;;3.60;72.00;;;2.44;58.56;93480.16;5061296;28;20576;-84
2022/04/02 05:18:53;;;;;;;0.80;0.80;;;3.60;71.90;;;2.50;58.99;93489.81;5057072;28;20330;-83
2022/04/02 05:21:22;;;;;;;0.70;0.70;;;3.60;71.90;;;2.49;58.52;93493.38;5037697;28;20861;-83
2022/04/02 05:23:50;;;;;;;0.77;0.77;;;3.60;71.90;;;2.48;58.42;93504.72;5023623;28;20223;-84
2022/04/02 05:26:19;;;;;;;0.80;0.80;;;3.60;71.90;;;2.50;58.79;93500.16;5031600;28;20493;-84
2022/04/02 05:28:56;;;;;;;0.80;0.80;;;3.60;71.90;;;2.49;59.10;93501.13;5055669;28;20670;-84
2022/04/02 05:31:23;;;;;;;0.70;0.70;;;3.50;71.80;;;2.47;58.55;93507.47;5015786;28;20208;-84
2022/04/02 05:33:50;;;;;;;0.80;0.80;;;3.50;71.90;;;2.39;58.63;93491.03;5014166;28;20315;-83
2022/04/02 05:36:18;;;;;;;0.80;0.80;;;3.50;71.80;;;2.52;58.38;93512.91;5047487;28;20203;-83
2022/04/02 05:38:45;;;;;;;0.70;0.70;;;3.50;71.80;;;2.54;58.68;93516.16;5031070;28;20311;-84
2022/04/02 05:41:13;;;;;;;0.80;0.80;;;3.50;71.90;;;2.53;58.64;93510.16;5032216;28;20211;-84
2022/04/02 05:43:40;;;;;;;0.80;0.80;;;3.60;72.00;;;2.57;58.60;93518.38;5047016;28;20223;-83
2022/04/02 05:46:07;;;;;;;0.80;0.80;;;3.60;72.00;;;2.59;58.60;93513.00;5015653;28;20196;-84
2022/04/02 05:48:34;;;;;;;0.80;0.80;;;3.60;71.90;;;2.62;58.62;93517.84;5063704;28;20208;-83
2022/04/02 05:51:01;;;;;;;0.70;0.70;;;3.60;72.00;;;2.61;58.61;93518.81;5030909;28;20200;-84
2022/04/02 05:53:28;;;;;;;0.70;0.70;;;3.60;71.90;;;2.63;58.62;93515.06;5030747;28;20208;-83
2022/04/02 05:55:56;;;;;;;0.80;0.80;;;3.60;71.90;;;2.66;58.57;93519.06;5050957;28;20196;-83
2022/04/02 05:58:23;;;;;;;0.70;0.70;;;3.60;71.80;;;2.68;58.58;93527.47;5048749;28;20203;-84
2022/04/02 06:00:51;;;;;;;0.70;0.70;;;3.70;71.80;;;2.68;58.27;93522.31;5037537;28;20204;-84
2022/04/02 06:03:20;;;;;;;0.80;0.80;;;3.70;71.70;;;2.69;58.17;93529.88;5050590;28;20299;-84
2022/04/02 06:05:48;;;;;;;0.70;0.70;;;3.70;71.60;;;2.70;58.23;93531.50;5031576;28;20200;-84
2022/04/02 06:08:16;;;;;;;0.70;0.70;;;3.70;71.50;;;2.71;58.14;93530.53;5031728;28;20197;-84
2022/04/02 06:10:44;;;;;;;0.70;0.70;;;3.70;71.40;;;2.70;58.32;93528.13;5034909;28;20269;-84
2022/04/02 06:13:12;;;;;;;0.70;0.70;;;3.70;71.50;;;2.70;58.30;93534.09;5031823;28;20219;-83
2022/04/02 06:15:40;;;;;;;0.70;0.70;;;3.70;71.50;;;2.61;57.78;93516.22;5018740;28;20240;-84
2022/04/02 06:18:07;;;;;;;0.70;0.70;;;3.70;71.50;;;2.72;58.18;93539.06;5035435;28;20634;-84
2022/04/02 06:20:34;;;;;;;0.60;0.60;;;3.70;71.50;;;2.72;58.15;93534.72;5050703;28;20227;-84
2022/04/02 06:23:02;;;;;;;0.70;0.70;;;3.70;71.50;;;2.74;58.05;93544.88;5035325;28;20257;-83
2022/04/02 06:25:29;;;;;;;0.70;0.70;;;3.70;71.50;;;2.74;58.04;93541.50;5034739;28;20219;-83
2022/04/02 06:27:56;;;;;;;0.70;0.70;;;3.70;71.50;;;2.72;57.84;93537.31;5031437;28;20197;-83
2022/04/02 06:30:23;;;;;;;0.70;0.70;;;3.70;71.50;;;2.77;58.14;93541.97;5046301;28;20296;-84
2022/04/02 06:32:56;;;;;;;0.70;0.70;;;3.80;71.60;;;2.78;57.91;93543.53;5048041;28;20530;-84
2022/04/02 06:35:25;;;;;;;0.70;0.70;;;3.80;71.50;;;2.79;57.60;93547.75;5018107;28;20577;-85
2022/04/02 06:37:54;;;;;;;0.60;0.60;;;3.80;71.60;;;2.78;57.78;93546.13;5014981;28;20219;-83
2022/04/02 06:40:24;;;;;;;0.80;0.80;;;3.80;71.50;;;2.80;57.57;93540.78;5068004;28;20219;-84
2022/04/02 06:42:51;;;;;;;0.80;0.80;;;3.80;71.60;;;2.82;57.49;93544.81;5035612;28;20226;-84
2022/04/02 06:45:32;;;;;;;0.70;0.70;;;3.80;71.50;;;2.81;57.79;93545.78;5033519;28;20251;-84
2022/04/02 06:48:00;;;;;;;0.60;0.60;;;3.80;71.50;;;2.82;57.61;93539.63;5047922;28;20254;-84
2022/04/02 06:50:28;;;;;;;0.70;0.70;;;3.80;71.50;;;2.87;57.65;93549.47;5035811;28;20674;-83
2022/04/02 06:52:55;;;;;;;0.70;0.70;;;3.80;71.50;;;2.89;57.67;93555.25;5035215;28;20666;-84
2022/04/02 06:55:22;;;;;;;0.80;0.80;;;3.80;71.50;;;2.72;57.19;93523.53;5052053;28;20216;-83
2022/04/02 06:57:55;;;;;;;0.70;0.70;;;3.80;71.50;;;2.88;57.30;93551.03;5050683;28;20223;-83
2022/04/02 07:00:23;;;;;;;0.70;0.70;;;3.90;71.60;;;2.94;57.29;93563.31;5047326;28;20763;-85
2022/04/02 07:02:51;;;;;;;0.75;0.75;;;3.90;71.60;;;2.93;57.26;93558.28;5050150;28;20224;-85
2022/04/02 07:05:19;;;;;;;0.80;0.80;;;3.90;71.60;;;2.95;57.32;93557.13;5035453;28;20267;-85
2022/04/02 07:07:48;;;;;;;0.70;0.70;;;3.90;71.40;;;2.97;57.17;93567.31;5050589;28;20199;-86
2022/04/02 07:10:15;;;;;;;0.80;0.80;;;3.90;71.30;;;2.97;56.94;93573.28;5022952;28;20231;-86
2022/04/02 07:12:42;;;;;;;0.70;0.70;;;3.90;71.00;;;2.97;56.94;93581.06;5035110;28;20208;-84
2022/04/02 07:15:10;;;;;;;0.70;0.70;;;3.90;70.90;;;2.90;56.88;93562.03;5034872;28;20633;-84
2022/04/02 07:17:37;;;;;;;0.70;0.70;;;3.90;70.70;;;2.96;56.80;93576.88;5034679;28;20617;-85
2022/04/02 07:20:06;;;;;;;0.70;0.70;;;3.90;70.70;;;2.96;56.56;93573.50;5017462;28;20232;-84
2022/04/02 07:22:37;;;;;;;0.60;0.60;;;3.90;70.60;;;2.89;56.35;93570.78;5084375;28;20195;-85
2022/04/02 07:25:06;;;;;;;0.80;0.80;;;3.90;70.30;;;2.97;56.34;93582.88;5067296;28;20716;-85
2022/04/02 07:27:36;;;;;;;0.70;0.70;;;3.90;70.50;;;2.99;56.85;93596.44;5050985;28;20200;-85
2022/04/02 07:30:04;;;;;;;0.63;0.63;;;3.90;70.50;;;3.00;56.22;93595.44;5018186;28;20220;-85
2022/04/02 07:32:32;;;;;;;0.60;0.60;;;4.00;70.50;;;2.96;56.19;93589.03;5047985;28;20204;-84
2022/04/02 07:34:59;;;;;;;0.70;0.70;;;4.00;70.50;;;3.04;56.08;93600.09;4998521;28;20587;-85
2022/04/02 07:38:04;;;;;;;0.75;0.75;;;4.00;70.40;;;3.04;56.08;93597.50;5051782;28;20220;-85
2022/04/02 07:41:20;;;;;;;0.80;0.80;;;4.00;70.10;;;3.01;56.07;93595.25;5040804;28;20224;-85
2022/04/02 07:43:55;;;;;;;0.80;0.80;;;4.00;70.20;;;3.03;56.21;93600.28;5053181;28;20242;-85
2022/04/02 07:46:29;;;;;;;0.70;0.70;;;4.00;70.20;;;3.00;56.27;93593.69;5051340;28;20199;-84
2022/04/02 07:48:59;;;;;;;0.70;0.70;;;4.00;70.20;;;3.08;56.43;93610.91;5067282;28;20565;-84
2022/04/02 07:51:30;;;;;;;0.60;0.60;;;4.00;70.20;;;3.07;56.13;93609.28;5046135;28;20673;-84
2022/04/02 07:54:02;;;;;;;0.80;0.80;;;4.00;70.20;;;3.09;55.99;93607.34;5035987;28;20595;-84
2022/04/02 07:56:37;;;;;;;0.80;0.80;;;4.10;69.90;;;3.06;55.62;93599.13;5052747;28;20291;-84
2022/04/02 07:59:11;;;;;;;0.80;0.80;;;4.00;69.70;;;3.09;55.64;93609.94;5070962;28;20298;-84
2022/04/02 08:01:44;;;;;;;0.70;0.70;;;4.00;69.60;;;3.06;55.46;93605.09;5059983;28;20545;-84
2022/04/02 08:04:12;;;;;;;0.70;0.70;;;4.00;69.40;;;3.01;55.49;93605.63;5034159;28;20274;-84
2022/04/02 08:06:40;;;;;;;0.70;0.70;;;4.00;69.60;;;3.09;55.68;93611.69;5053230;28;20200;-85
2022/04/02 08:09:11;;;;;;;0.60;0.60;;;4.00;69.80;;;3.10;55.73;93616.72;5021745;28;20224;-85
2022/04/02 08:11:40;;;;;;;0.80;0.80;;;4.00;69.90;;;3.08;55.82;93599.75;5055358;28;20646;-84
2022/04/02 08:14:09;;;;;;;0.70;0.70;;;4.10;70.00;;;3.18;55.58;93614.03;5020548;28;20239;-84
2022/04/02 08:16:42;;;;;;;0.80;0.80;;;4.10;69.90;;;3.16;55.26;93613.44;5042055;28;20204;-84
2022/04/02 08:19:12;;;;;;;0.80;0.80;;;4.10;69.90;;;3.26;55.24;93627.88;5038474;28;20265;-85
2022/04/02 08:21:40;;;;;;;0.70;0.70;;;4.10;69.80;;;3.28;55.60;93626.72;5053634;28;20200;-84
2022/04/02 08:24:07;;;;;;;0.80;0.80;;;4.20;69.80;;;3.29;55.10;93628.34;5053296;28;20285;-84
2022/04/02 08:27:03;;;;;;;0.80;0.80;;;4.20;69.80;;;3.25;55.25;93623.69;5035665;28;20192;-85
2022/04/02 08:30:17;;;;;;;0.70;0.70;;;4.20;69.30;;;3.25;55.13;93636.63;5066253;28;20643;-84
2022/04/02 08:33:02;;;;;;;0.80;0.80;;;4.20;69.10;;;3.22;54.31;93642.97;5078773;28;20519;-84
2022/04/02 08:36:00;;;;;;;0.80;0.80;;;4.20;69.20;;;3.14;54.49;93643.88;5047462;28;20277;-84
2022/04/02 08:39:26;;;;;;;0.70;0.70;;;4.20;68.90;;;3.08;54.68;93652.34;5036986;28;20299;-84
2022/04/02 08:42:08;;;;;;;0.70;0.70;;;4.10;68.90;;;3.07;55.45;93648.16;5037117;28;20430;-83
2022/04/02 08:45:07;;;;;;;0.70;0.70;;;4.10;69.40;;;3.06;55.07;93653.53;5053299;28;20223;-83
2022/04/02 08:48:22;;;;;;;0.80;0.80;;;4.10;69.30;;;3.09;55.08;93663.50;5036429;28;20227;-83
2022/04/02 08:51:09;;;;;;;0.70;0.70;;;4.10;69.10;;;2.98;54.80;93657.78;5048877;28;20234;-84
2022/04/02 08:54:04;;;;;;;0.60;0.60;;;4.10;69.40;;;3.05;55.11;93670.84;5036537;28;20198;-84
2022/04/02 08:56:38;;;;;;;0.70;0.70;;;4.10;69.20;;;2.97;55.09;93673.53;5053425;28;20569;-83
2022/04/02 08:59:07;;;;;;;0.70;0.70;;;4.00;69.20;;;3.02;55.22;93681.56;5054395;28;20215;-84
2022/04/02 09:01:53;;;;;;;0.70;0.70;;;4.00;69.30;;;2.99;55.06;93671.53;5052987;28;20239;-84
2022/04/02 09:05:08;;;;;;;0.80;0.80;;;4.00;69.30;;;3.02;55.51;93676.38;5069065;28;20232;-84
2022/04/02 09:08:33;;;;;;;0.90;0.90;;;4.00;69.40;;;3.02;55.29;93678.97;5018680;28;20546;-84
2022/04/02 09:11:25;;;;;;;0.70;0.70;;;4.00;69.50;;;3.03;55.17;93678.78;5069801;28;20207;-84
2022/04/02 09:14:17;;;;;;;0.80;0.80;;;4.10;69.40;;;3.04;55.22;93683.00;5053231;28;20224;-85
2022/04/02 09:17:47;;;;;;;0.70;0.70;;;4.00;69.40;;;2.93;55.33;93654.13;5070105;28;20203;-85
2022/04/02 09:20:35;;;;;;;0.70;0.70;;;4.00;69.30;;;3.04;55.25;93675.22;5052591;28;20265;-84
2022/04/02 09:23:20;;;;;;;0.70;0.70;;;4.10;69.60;;;3.06;55.51;93684.59;5075043;28;20646;-84
2022/04/02 09:26:30;;;;;;;0.70;0.70;;;4.00;69.60;;;3.09;55.55;93692.84;5072801;28;20212;-84
2022/04/02 09:29:25;;;;;;;0.80;0.80;;;4.00;69.40;;;3.11;55.59;93693.44;5072842;28;20219;-83
2022/04/02 09:32:21;;;;;;;0.70;0.70;;;4.00;69.60;;;3.14;55.32;93693.09;5051299;28;20250;-83
2022/04/02 09:35:47;;;;;;;0.80;0.80;;;4.10;69.60;;;3.10;55.04;93693.63;5048936;28;20235;-84
2022/04/02 09:38:42;;;;;;;0.80;0.80;;;4.10;69.60;;;3.16;55.39;93698.94;5065756;28;20201;-84
2022/04/02 09:42:19;;;;;;;0.90;0.90;;;4.10;69.40;;;3.10;55.41;93688.44;5068187;28;20274;-84
2022/04/02 09:44:59;;;;;;;0.70;0.70;;;4.10;69.60;;;3.13;55.22;93707.03;5047487;28;20229;-84
2022/04/02 09:47:48;;;;;;;0.60;0.60;;;4.10;69.70;;;3.17;55.47;93704.91;5032647;28;20200;-84
2022/04/02 09:50:22;;;;;;;0.70;0.70;;;4.10;69.20;;;3.17;55.13;93702.31;5059625;28;20219;-84
2022/04/02 09:53:04;;;;;;;0.70;0.70;;;4.10;69.50;;;3.17;55.41;93695.34;5051793;28;20643;-84
2022/04/02 09:55:56;;;;;;;0.80;0.80;;;4.10;69.20;;;3.17;55.22;93703.13;5034271;28;20226;-84
2022/04/02 09:59:05;;;;;;;0.80;0.80;;;4.10;69.40;;;3.19;55.35;93695.97;5049987;28;20200;-85
2022/04/02 10:02:03;;;;;;;0.70;0.70;;;4.10;69.30;;;3.19;55.00;93695.16;5052188;28;20636;-84
2022/04/02 10:04:34;;;;;;;0.80;0.80;;;4.10;69.20;;;3.23;55.08;93706.00;5048744;28;20290;-84
2022/04/02 10:07:04;;;;;;;0.70;0.70;;;4.10;69.50;;;3.17;54.95;93690.19;5052159;28;20227;-85
2022/04/02 10:09:36;;;;;;;0.70;0.70;;;4.10;69.30;;;3.23;54.92;93691.22;5052342;28;20212;-84
2022/04/02 10:12:05;;;;;;;0.80;0.80;;;4.20;69.50;;;3.26;55.20;93698.66;5052184;28;20204;-84
2022/04/02 10:14:34;;;;;;;0.80;0.80;;;4.20;69.70;;;3.31;55.05;93708.50;5051991;28;20216;-84
2022/04/02 10:17:06;;;;;;;0.68;0.68;;;4.20;69.70;;;3.35;55.22;93707.94;5070871;28;20208;-85
2022/04/02 10:19:35;;;;;;;0.70;0.70;;;4.20;69.60;;;3.37;55.03;93705.22;5015667;28;20303;-84
2022/04/02 10:22:09;;;;;;;0.70;0.70;;;4.20;69.50;;;3.39;55.18;93705.03;5015296;28;20193;-84
2022/04/02 10:24:50;;;;;;;0.80;0.80;;;4.30;69.40;;;3.35;54.88;93709.75;5048801;28;20311;-85
2022/04/02 10:27:32;;;;;;;0.73;0.73;;;4.30;69.10;;;3.32;54.64;93704.91;5065112;28;20681;-84
2022/04/02 10:30:14;;;;;;;0.70;0.70;;;4.20;68.80;;;3.28;54.63;93714.03;5048206;28;20212;-84
2022/04/02 10:35:53;;;;;;;0.80;0.80;;;4.20;68.60;;;3.14;54.73;93710.44;5033391;28;20199;-84
2022/04/02 10:38:35;;;;;;;0.70;0.70;;;4.10;69.10;;;3.10;54.98;93709.16;5051710;28;20228;-85
2022/04/02 10:41:09;;;;;;;0.70;0.70;;;4.10;69.00;;;3.06;55.02;93711.31;5051657;28;20200;-84
2022/04/02 10:43:50;;;;;;;0.70;0.70;;;4.10;69.30;;;3.09;55.18;93710.16;5048693;28;20262;-84
2022/04/02 10:46:22;;;;;;;0.80;0.80;;;4.00;69.60;;;3.18;55.40;93719.47;5051874;28;20732;-85
2022/04/02 10:49:03;;;;;;;0.70;0.70;;;4.10;69.70;;;3.23;55.39;93722.31;5035202;28;20219;-85
2022/04/02 10:51:32;;;;;;;0.70;0.70;;;4.10;69.50;;;3.19;55.13;93724.47;5034897;28;20230;-85
2022/04/02 10:54:27;;;;;;;0.80;0.80;;;4.10;69.70;;;3.09;55.19;93710.16;5036416;28;20701;-85
2022/04/02 10:56:56;;;;;;;0.70;0.70;;;4.10;69.60;;;3.14;55.16;93726.78;5031201;28;20197;-84
2022/04/02 10:59:30;;;;;;;0.77;0.77;;;4.10;70.60;;;3.16;55.34;93724.00;5031665;28;20233;-85
2022/04/02 11:02:01;;;;;;;0.70;0.70;;;4.10;69.80;;;3.17;55.37;93731.63;5032702;28;20631;-85
2022/04/02 11:05:01;;;;;;;0.70;0.70;;;4.10;69.80;;;3.21;55.59;93734.69;5034286;28;20289;-85
2022/04/02 11:07:35;;;;;;;0.80;0.80;;;4.10;69.80;;;3.23;55.39;93730.09;5051502;28;20708;-85
2022/04/02 11:10:04;;;;;;;0.80;0.80;;;4.10;69.80;;;3.19;54.95;93732.25;5043708;28;20255;-85
2022/04/02 11:12:37;;;;;;;0.80;0.80;;;4.10;69.70;;;3.16;55.19;93735.19;5050771;28;20297;-85